Time;durP1;ratioP1;P1;durP2;ratioP2;P2;SDS_P1;SDS_P2;PMS_P1;PMS_P2;Temp;Humidity;BMP_temperature;BMP_pressure;BME280_temperature;BME280_humidity;BME280_pressure;Samples;Min_cycle;Max_cycle;Signal;HPM_P1;HPM_P2
2021/12/26 00:00:25;;;;;;;18.47;7.50;;;;;;;;;;5069997;28;20028;-73
2021/12/26 00:02:51;;;;;;;20.33;7.50;;;;;;;;;;5068876;28;20021;-73
2021/12/26 00:05:18;;;;;;;19.87;7.17;;;;;;;;;;5070509;28;20023;-74
2021/12/26 00:07:44;;;;;;;17.97;7.30;;;;;;;;;;5068561;28;20111;-72
2021/12/26 00:10:14;;;;;;;28.77;8.60;;;;;;;;;;5068516;28;20024;-73
2021/12/26 00:12:39;;;;;;;17.43;7.67;;;;;;;;;;5069870;28;20664;-73
2021/12/26 00:15:06;;;;;;;16.93;7.07;;;;;;;;;;5069761;28;20021;-73
2021/12/26 00:17:31;;;;;;;20.80;7.47;;;;;;;;;;5069562;28;20056;-73
2021/12/26 00:19:57;;;;;;;19.77;8.93;;;;;;;;;;5067122;28;20448;-74
2021/12/26 00:22:24;;;;;;;24.27;8.43;;;;;;;;;;5069886;28;20036;-74
2021/12/26 00:24:50;;;;;;;17.27;7.23;;;;;;;;;;5068196;28;20029;-73
2021/12/26 00:27:16;;;;;;;17.83;8.13;;;;;;;;;;5068189;28;20059;-73
2021/12/26 00:29:41;;;;;;;17.13;8.03;;;;;;;;;;5069736;28;20031;-73
2021/12/26 00:32:07;;;;;;;21.37;8.33;;;;;;;;;;5069295;28;20021;-72
2021/12/26 00:34:35;;;;;;;20.30;7.90;;;;;;;;;;5067115;28;20045;-73
2021/12/26 00:37:00;;;;;;;23.13;7.90;;;;;;;;;;5067837;28;20048;-73
2021/12/26 00:39:26;;;;;;;17.73;6.97;;;;;;;;;;5067978;28;20029;-73
2021/12/26 00:41:53;;;;;;;22.13;7.93;;;;;;;;;;5067781;28;20024;-73
2021/12/26 00:44:19;;;;;;;20.97;8.43;;;;;;;;;;5068297;28;20039;-73
2021/12/26 00:46:44;;;;;;;23.47;8.83;;;;;;;;;;5084864;28;20024;-74
2021/12/26 00:49:10;;;;;;;14.43;6.47;;;;;;;;;;5069385;28;20039;-73
2021/12/26 00:51:36;;;;;;;31.70;9.40;;;;;;;;;;5067785;28;20033;-74
2021/12/26 00:54:01;;;;;;;19.83;8.53;;;;;;;;;;5069159;28;20056;-73
2021/12/26 00:56:27;;;;;;;19.83;7.57;;;;;;;;;;5067926;28;20121;-73
2021/12/26 00:58:53;;;;;;;21.73;8.67;;;;;;;;;;5067638;28;20468;-73
2021/12/26 01:01:18;;;;;;;20.37;8.70;;;;;;;;;;5067963;28;20020;-73
2021/12/26 01:03:44;;;;;;;20.80;7.47;;;;;;;;;;5067766;28;20260;-74
2021/12/26 01:06:10;;;;;;;20.00;8.53;;;;;;;;;;5069209;28;20055;-74
2021/12/26 01:08:39;;;;;;;21.87;7.80;;;;;;;;;;5067840;28;20483;-74
2021/12/26 01:11:24;;;;;;;20.50;8.43;;;;;;;;;;5070491;28;20406;-73
2021/12/26 01:13:50;;;;;;;19.93;8.10;;;;;;;;;;5073003;28;20075;-73
2021/12/26 01:16:16;;;;;;;23.43;8.37;;;;;;;;;;5072926;28;20047;-73
2021/12/26 01:18:46;;;;;;;20.23;7.60;;;;;;;;;;5071354;28;20029;-74
2021/12/26 01:21:21;;;;;;;26.23;8.90;;;;;;;;;;5088469;28;20036;-75
2021/12/26 01:23:57;;;;;;;26.17;8.53;;;;;;;;;;5072796;28;20035;-73
2021/12/26 01:26:23;;;;;;;17.53;7.73;;;;;;;;;;5071469;28;20028;-73
2021/12/26 01:28:48;;;;;;;27.53;8.30;;;;;;;;;;5071077;28;20430;-73
2021/12/26 01:31:19;;;;;;;22.60;6.90;;;;;;;;;;5071284;28;20075;-73
2021/12/26 01:33:54;;;;;;;21.17;8.33;;;;;;;;;;5071003;28;20121;-73
2021/12/26 01:36:20;;;;;;;21.67;8.47;;;;;;;;;;5071008;28;20085;-73
2021/12/26 01:38:47;;;;;;;19.50;7.87;;;;;;;;;;5071410;28;20033;-73
2021/12/26 01:41:15;;;;;;;20.97;7.80;;;;;;;;;;5072568;28;20103;-73
2021/12/26 01:43:45;;;;;;;28.63;8.03;;;;;;;;;;5071278;28;20592;-73
2021/12/26 01:46:11;;;;;;;19.63;7.77;;;;;;;;;;5073022;28;20028;-73
2021/12/26 01:48:36;;;;;;;16.57;8.00;;;;;;;;;;5072962;28;20025;-74
2021/12/26 01:51:02;;;;;;;17.47;7.43;;;;;;;;;;5077464;28;20443;-73
2021/12/26 01:53:36;;;;;;;17.40;8.00;;;;;;;;;;5078494;28;20100;-74
2021/12/26 01:56:04;;;;;;;19.07;8.03;;;;;;;;;;5089498;28;20088;-74
2021/12/26 01:58:30;;;;;;;19.67;8.23;;;;;;;;;;5072636;28;20341;-73
2021/12/26 02:01:10;;;;;;;27.73;9.47;;;;;;;;;;5072203;28;20024;-73
2021/12/26 02:03:38;;;;;;;23.23;9.50;;;;;;;;;;5071201;28;20574;-73
2021/12/26 02:06:05;;;;;;;17.07;7.30;;;;;;;;;;5071678;28;20261;-73
2021/12/26 02:08:31;;;;;;;18.00;7.13;;;;;;;;;;5070534;28;20024;-73
2021/12/26 02:11:00;;;;;;;18.97;6.63;;;;;;;;;;5072257;28;20035;-74
2021/12/26 02:13:26;;;;;;;22.93;7.47;;;;;;;;;;5071928;28;20025;-74
2021/12/26 02:15:52;;;;;;;21.17;8.73;;;;;;;;;;5070426;28;20040;-73
2021/12/26 02:18:19;;;;;;;17.23;7.60;;;;;;;;;;5070552;28;20025;-74
2021/12/26 02:23:30;;;;;;;13.40;6.90;;;;;;;;;;5072141;28;20043;-73
2021/12/26 02:28:22;;;;;;;17.97;7.60;;;;;;;;;;5071693;28;20024;-73
2021/12/26 02:30:50;;;;;;;20.80;8.80;;;;;;;;;;5070261;28;20115;-73
2021/12/26 02:33:18;;;;;;;23.23;7.37;;;;;;;;;;5070003;28;20024;-73
2021/12/26 02:35:44;;;;;;;23.50;8.57;;;;;;;;;;5071875;28;20253;-73
2021/12/26 02:38:11;;;;;;;20.10;7.93;;;;;;;;;;5071413;28;20107;-73
2021/12/26 02:40:36;;;;;;;22.87;8.90;;;;;;;;;;5071502;28;20100;-73
2021/12/26 02:43:03;;;;;;;16.70;8.30;;;;;;;;;;5070104;28;20433;-73
2021/12/26 02:45:29;;;;;;;17.70;7.87;;;;;;;;;;5070198;28;20032;-72
2021/12/26 02:47:54;;;;;;;15.37;8.03;;;;;;;;;;5072893;28;20523;-73
2021/12/26 02:50:24;;;;;;;23.77;8.70;;;;;;;;;;5073296;28;20378;-74
2021/12/26 02:52:51;;;;;;;18.37;6.63;;;;;;;;;;5070338;28;20086;-74
2021/12/26 02:55:18;;;;;;;23.33;8.33;;;;;;;;;;5072400;28;20102;-73
2021/12/26 02:57:49;;;;;;;27.10;8.13;;;;;;;;;;5070083;28;20488;-73
2021/12/26 03:00:17;;;;;;;20.80;7.63;;;;;;;;;;5071137;28;20036;-73
2021/12/26 03:02:45;;;;;;;20.57;7.97;;;;;;;;;;5071649;28;20028;-72
2021/12/26 03:05:11;;;;;;;25.23;8.37;;;;;;;;;;5070482;28;20415;-73
2021/12/26 03:07:37;;;;;;;21.23;7.23;;;;;;;;;;5072446;28;20431;-74
2021/12/26 03:10:05;;;;;;;18.30;8.07;;;;;;;;;;5071695;28;20048;-73
2021/12/26 03:12:33;;;;;;;16.77;8.40;;;;;;;;;;5071061;28;20111;-73
2021/12/26 03:14:59;;;;;;;18.03;7.33;;;;;;;;;;5070437;28;20296;-73
2021/12/26 03:17:24;;;;;;;21.83;8.40;;;;;;;;;;5069120;28;20448;-73
2021/12/26 03:19:50;;;;;;;17.17;8.60;;;;;;;;;;5070414;28;20383;-73
2021/12/26 03:22:16;;;;;;;20.13;8.17;;;;;;;;;;5068941;28;20025;-73
2021/12/26 03:24:45;;;;;;;15.97;7.87;;;;;;;;;;5070607;28;20028;-73
2021/12/26 03:27:12;;;;;;;19.27;8.47;;;;;;;;;;5068866;28;20032;-74
2021/12/26 03:29:38;;;;;;;21.83;8.97;;;;;;;;;;5070521;28;20048;-72
2021/12/26 03:32:04;;;;;;;20.03;8.70;;;;;;;;;;5070220;28;20585;-73
2021/12/26 03:34:29;;;;;;;20.50;7.93;;;;;;;;;;5069792;28;20133;-73
2021/12/26 03:36:56;;;;;;;23.37;8.87;;;;;;;;;;5070351;28;20060;-74
2021/12/26 03:39:22;;;;;;;23.77;8.03;;;;;;;;;;5069255;28;20044;-73
2021/12/26 03:41:48;;;;;;;21.70;8.63;;;;;;;;;;5070281;28;20035;-74
2021/12/26 03:44:14;;;;;;;21.30;8.23;;;;;;;;;;5068528;28;20269;-74
2021/12/26 03:46:39;;;;;;;19.77;8.80;;;;;;;;;;5070250;28;20063;-73
2021/12/26 03:49:06;;;;;;;23.13;8.77;;;;;;;;;;5068385;28;20040;-73
2021/12/26 03:51:33;;;;;;;14.40;7.40;;;;;;;;;;5068948;28;20032;-73
2021/12/26 03:54:00;;;;;;;24.20;7.97;;;;;;;;;;5068549;28;20261;-73
2021/12/26 03:56:26;;;;;;;29.03;8.80;;;;;;;;;;5069945;28;20249;-73
2021/12/26 03:58:51;;;;;;;23.43;8.67;;;;;;;;;;5068815;28;20086;-73
2021/12/26 04:01:17;;;;;;;23.97;8.93;;;;;;;;;;5068291;28;20056;-73
2021/12/26 04:03:43;;;;;;;28.47;9.80;;;;;;;;;;5068782;28;20082;-73
2021/12/26 04:06:09;;;;;;;21.83;9.07;;;;;;;;;;5068441;28;20025;-72
2021/12/26 04:08:35;;;;;;;22.27;7.97;;;;;;;;;;5069890;28;20032;-74
2021/12/26 04:11:01;;;;;;;23.43;9.20;;;;;;;;;;5069730;28;20112;-73
2021/12/26 04:13:26;;;;;;;26.87;10.63;;;;;;;;;;5069624;28;20115;-74
2021/12/26 04:15:52;;;;;;;16.30;8.47;;;;;;;;;;5069459;28;20391;-72
2021/12/26 04:18:18;;;;;;;22.67;8.43;;;;;;;;;;5067998;28;20336;-72
2021/12/26 04:20:44;;;;;;;29.10;9.70;;;;;;;;;;5068449;28;20086;-73
2021/12/26 04:23:11;;;;;;;19.17;9.07;;;;;;;;;;5069446;28;20415;-74
2021/12/26 04:25:37;;;;;;;30.67;9.77;;;;;;;;;;5068422;28;20032;-74
2021/12/26 04:28:02;;;;;;;21.40;8.87;;;;;;;;;;5069781;28;20265;-75
2021/12/26 04:30:30;;;;;;;16.93;8.07;;;;;;;;;;5070145;28;20032;-72
2021/12/26 04:32:55;;;;;;;29.90;8.53;;;;;;;;;;5075102;28;20036;-75
2021/12/26 04:35:22;;;;;;;23.73;8.93;;;;;;;;;;5078190;28;20284;-74
2021/12/26 04:37:48;;;;;;;28.50;9.37;;;;;;;;;;5077091;28;20032;-73
2021/12/26 04:40:15;;;;;;;31.87;9.50;;;;;;;;;;5072199;28;20264;-73
2021/12/26 04:42:44;;;;;;;26.67;9.23;;;;;;;;;;5068796;28;20510;-73
2021/12/26 04:45:10;;;;;;;25.83;9.07;;;;;;;;;;5070533;28;20338;-72
2021/12/26 04:47:37;;;;;;;24.00;8.57;;;;;;;;;;5074910;28;20257;-73
2021/12/26 04:50:10;;;;;;;29.60;9.40;;;;;;;;;;5073380;28;20051;-74
2021/12/26 04:52:36;;;;;;;19.70;9.67;;;;;;;;;;5072872;28;20272;-74
2021/12/26 04:55:05;;;;;;;27.30;8.83;;;;;;;;;;5074035;28;20892;-73
2021/12/26 04:57:31;;;;;;;22.73;8.40;;;;;;;;;;5073690;28;20028;-73
2021/12/26 04:59:57;;;;;;;20.83;8.73;;;;;;;;;;5074217;28;20390;-73
2021/12/26 05:02:23;;;;;;;20.77;8.63;;;;;;;;;;5084409;28;20257;-73
2021/12/26 05:04:48;;;;;;;25.13;9.80;;;;;;;;;;5081634;28;20044;-73
2021/12/26 05:07:14;;;;;;;19.50;8.53;;;;;;;;;;5083710;28;20024;-73
2021/12/26 05:09:41;;;;;;;25.00;9.57;;;;;;;;;;5082297;28;20104;-74
2021/12/26 05:12:07;;;;;;;24.47;8.90;;;;;;;;;;5072003;28;20717;-73
2021/12/26 05:14:33;;;;;;;25.37;8.57;;;;;;;;;;5072295;28;20265;-73
2021/12/26 05:16:58;;;;;;;25.07;9.03;;;;;;;;;;5071965;28;20377;-73
2021/12/26 05:19:24;;;;;;;20.03;8.97;;;;;;;;;;5072894;28;20017;-73
2021/12/26 05:21:49;;;;;;;22.50;8.30;;;;;;;;;;5071574;28;20020;-73
2021/12/26 05:24:15;;;;;;;20.03;9.10;;;;;;;;;;5072537;28;20032;-72
2021/12/26 05:26:40;;;;;;;26.30;8.37;;;;;;;;;;5073033;28;20032;-73
2021/12/26 05:29:06;;;;;;;19.30;8.40;;;;;;;;;;5072687;28;20437;-74
2021/12/26 05:31:32;;;;;;;24.27;9.00;;;;;;;;;;5071519;28;20081;-73
2021/12/26 05:33:58;;;;;;;22.30;8.57;;;;;;;;;;5071185;28;20127;-72
2021/12/26 05:36:25;;;;;;;18.03;8.50;;;;;;;;;;5070915;28;20407;-71
2021/12/26 05:38:50;;;;;;;26.47;8.97;;;;;;;;;;5070888;28;20273;-71
2021/12/26 05:41:16;;;;;;;20.67;8.00;;;;;;;;;;5072351;28;20264;-69
2021/12/26 05:43:42;;;;;;;22.13;9.73;;;;;;;;;;5072397;28;20027;-71
2021/12/26 05:46:08;;;;;;;27.17;9.13;;;;;;;;;;5070703;28;20040;-71
2021/12/26 05:48:34;;;;;;;14.77;8.00;;;;;;;;;;5071187;28;20271;-72
2021/12/26 05:50:59;;;;;;;23.17;9.47;;;;;;;;;;5072023;28;20025;-71
2021/12/26 05:53:25;;;;;;;24.80;9.40;;;;;;;;;;5072177;28;20264;-71
2021/12/26 05:55:51;;;;;;;18.43;8.23;;;;;;;;;;5070649;28;20033;-71
2021/12/26 05:58:16;;;;;;;26.67;9.47;;;;;;;;;;5071442;28;20087;-70
2021/12/26 06:00:42;;;;;;;18.80;8.63;;;;;;;;;;5072293;28;20103;-71
2021/12/26 06:03:07;;;;;;;25.27;9.20;;;;;;;;;;5071928;28;20572;-71
2021/12/26 06:05:33;;;;;;;19.93;8.30;;;;;;;;;;5072370;28;20028;-71
2021/12/26 06:07:58;;;;;;;26.33;10.73;;;;;;;;;;5070901;28;20024;-72
2021/12/26 06:10:24;;;;;;;26.30;10.17;;;;;;;;;;5071689;28;20460;-70
2021/12/26 06:12:49;;;;;;;24.60;10.27;;;;;;;;;;5070609;28;20025;-70
2021/12/26 06:15:15;;;;;;;24.37;10.23;;;;;;;;;;5070301;28;20101;-70
2021/12/26 06:17:40;;;;;;;26.93;9.83;;;;;;;;;;5070326;28;20024;-69
2021/12/26 06:20:14;;;;;;;23.87;9.90;;;;;;;;;;5070079;28;20024;-71
2021/12/26 06:22:44;;;;;;;23.50;11.07;;;;;;;;;;5070152;28;20491;-71
2021/12/26 06:25:11;;;;;;;26.30;11.17;;;;;;;;;;5071564;28;20725;-72
2021/12/26 06:27:37;;;;;;;26.00;9.90;;;;;;;;;;5071701;28;20254;-70
2021/12/26 06:30:09;;;;;;;21.60;9.83;;;;;;;;;;5071552;28;20249;-70
2021/12/26 06:32:34;;;;;;;26.73;9.82;;;;;;;;;;5070350;28;20032;-70
2021/12/26 06:35:01;;;;;;;28.93;9.07;;;;;;;;;;5071481;28;20040;-70
2021/12/26 06:37:30;;;;;;;28.70;9.73;;;;;;;;;;5070627;28;20024;-75
2021/12/26 06:39:59;;;;;;;27.13;12.27;;;;;;;;;;5073063;28;20331;-76
2021/12/26 06:42:25;;;;;;;24.60;9.90;;;;;;;;;;5073436;28;20816;-75
2021/12/26 06:44:50;;;;;;;19.77;10.10;;;;;;;;;;5071408;28;20258;-75
2021/12/26 06:47:17;;;;;;;29.17;10.73;;;;;;;;;;5071232;28;20253;-75
2021/12/26 06:49:43;;;;;;;27.20;10.30;;;;;;;;;;5071222;28;20540;-73
2021/12/26 06:52:09;;;;;;;32.23;11.60;;;;;;;;;;5069587;28;20107;-73
2021/12/26 06:54:36;;;;;;;23.73;10.00;;;;;;;;;;5069608;28;20113;-73
2021/12/26 06:57:03;;;;;;;23.87;9.80;;;;;;;;;;5071094;28;20252;-72
2021/12/26 06:59:28;;;;;;;22.27;9.53;;;;;;;;;;5070459;28;20273;-73
2021/12/26 07:01:54;;;;;;;23.23;9.70;;;;;;;;;;5069299;28;20254;-74
2021/12/26 07:04:20;;;;;;;27.87;11.50;;;;;;;;;;5070774;28;20387;-75
2021/12/26 07:06:45;;;;;;;26.70;10.30;;;;;;;;;;5071158;28;20029;-76
2021/12/26 07:09:11;;;;;;;31.17;11.87;;;;;;;;;;5068193;28;20021;-75
2021/12/26 07:11:36;;;;;;;37.30;13.40;;;;;;;;;;5070733;28;20026;-76
2021/12/26 07:14:02;;;;;;;35.97;12.70;;;;;;;;;;5069440;28;20483;-75
2021/12/26 07:16:27;;;;;;;42.33;12.53;;;;;;;;;;5069468;28;20040;-78
2021/12/26 07:18:53;;;;;;;34.13;12.60;;;;;;;;;;5071032;28;20082;-75
2021/12/26 07:21:18;;;;;;;22.90;9.67;;;;;;;;;;5071440;28;20024;-76
2021/12/26 07:23:44;;;;;;;26.97;9.70;;;;;;;;;;5072052;28;20572;-75
2021/12/26 07:26:10;;;;;;;31.53;11.33;;;;;;;;;;5071889;28;20111;-77
2021/12/26 07:28:36;;;;;;;28.17;10.30;;;;;;;;;;5070506;28;20020;-75
2021/12/26 07:31:02;;;;;;;25.47;9.47;;;;;;;;;;5069244;28;20637;-75
2021/12/26 07:33:27;;;;;;;19.83;8.80;;;;;;;;;;5070070;28;20064;-76
2021/12/26 07:35:53;;;;;;;14.90;8.40;;;;;;;;;;5068630;28;20032;-77
2021/12/26 07:38:18;;;;;;;20.47;10.17;;;;;;;;;;5070089;28;20096;-77
2021/12/26 07:40:45;;;;;;;26.60;9.97;;;;;;;;;;5068902;28;20032;-76
2021/12/26 07:43:11;;;;;;;27.13;9.57;;;;;;;;;;5070277;28;20024;-76
2021/12/26 07:45:37;;;;;;;24.43;10.30;;;;;;;;;;5070230;28;20740;-77
2021/12/26 07:48:03;;;;;;;28.93;9.77;;;;;;;;;;5070303;28;20032;-75
2021/12/26 07:50:29;;;;;;;26.90;9.67;;;;;;;;;;5069914;28;20070;-76
2021/12/26 07:52:58;;;;;;;47.07;14.43;;;;;;;;;;5068855;28;20285;-75
2021/12/26 07:55:23;;;;;;;25.73;10.20;;;;;;;;;;5068838;28;20059;-76
2021/12/26 07:57:49;;;;;;;27.33;10.33;;;;;;;;;;5070181;28;20700;-75
2021/12/26 08:00:17;;;;;;;18.30;9.70;;;;;;;;;;5069901;28;20035;-76
2021/12/26 08:02:43;;;;;;;29.73;11.23;;;;;;;;;;5068601;28;20032;-76
2021/12/26 08:05:08;;;;;;;26.50;10.10;;;;;;;;;;5069825;28;20431;-75
2021/12/26 08:07:34;;;;;;;27.37;11.00;;;;;;;;;;5069006;28;20051;-76
2021/12/26 08:10:01;;;;;;;22.00;10.63;;;;;;;;;;5069928;28;20051;-76
2021/12/26 08:12:27;;;;;;;20.50;9.50;;;;;;;;;;5068184;28;20668;-76
2021/12/26 08:14:52;;;;;;;21.77;9.73;;;;;;;;;;5068662;28;20355;-75
2021/12/26 08:17:18;;;;;;;21.70;9.40;;;;;;;;;;5068261;28;20472;-75
2021/12/26 08:19:44;;;;;;;17.90;8.57;;;;;;;;;;5069812;28;20024;-75
2021/12/26 08:22:09;;;;;;;24.90;10.73;;;;;;;;;;5070011;28;20487;-76
2021/12/26 08:24:35;;;;;;;27.47;10.77;;;;;;;;;;5069700;28;20033;-76
2021/12/26 08:27:01;;;;;;;23.27;9.37;;;;;;;;;;5068230;28;20020;-76
2021/12/26 08:29:27;;;;;;;24.30;9.80;;;;;;;;;;5068337;28;20453;-75
2021/12/26 08:31:56;;;;;;;26.13;10.07;;;;;;;;;;5068405;28;20028;-75
2021/12/26 08:34:23;;;;;;;24.40;9.97;;;;;;;;;;5068133;28;20048;-75
2021/12/26 08:36:55;;;;;;;28.10;10.63;;;;;;;;;;5070319;28;20047;-76
2021/12/26 08:39:20;;;;;;;26.35;11.25;;;;;;;;;;5069394;28;20352;-76
2021/12/26 08:41:46;;;;;;;22.50;10.30;;;;;;;;;;5069871;28;20420;-76
2021/12/26 08:44:16;;;;;;;18.63;9.73;;;;;;;;;;5069244;28;20035;-72
2021/12/26 08:46:43;;;;;;;19.20;8.13;;;;;;;;;;5084943;28;20052;-76
2021/12/26 08:49:09;;;;;;;22.30;7.67;;;;;;;;;;5069840;28;20276;-77
2021/12/26 08:51:35;;;;;;;23.23;10.13;;;;;;;;;;5070075;28;20651;-76
2021/12/26 08:54:02;;;;;;;22.80;8.87;;;;;;;;;;5069575;28;20028;-75
2021/12/26 08:56:29;;;;;;;36.70;12.07;;;;;;;;;;5069687;28;20024;-76
2021/12/26 08:58:55;;;;;;;21.60;10.37;;;;;;;;;;5069888;28;20418;-77
2021/12/26 09:01:20;;;;;;;41.03;13.30;;;;;;;;;;5051614;28;20268;-75
2021/12/26 09:03:46;;;;;;;30.77;12.93;;;;;;;;;;5070810;28;20028;-76
2021/12/26 09:06:11;;;;;;;24.87;10.37;;;;;;;;;;5078370;28;20334;-75
2021/12/26 09:08:37;;;;;;;25.73;10.63;;;;;;;;;;5077458;28;20100;-76
2021/12/26 09:11:03;;;;;;;26.40;10.37;;;;;;;;;;5074004;28;20047;-77
2021/12/26 09:13:28;;;;;;;25.80;10.00;;;;;;;;;;5073596;28;20035;-77
2021/12/26 09:15:54;;;;;;;27.00;9.67;;;;;;;;;;5069795;28;20031;-76
2021/12/26 09:18:20;;;;;;;27.63;10.03;;;;;;;;;;5074143;28;20021;-76
2021/12/26 09:20:45;;;;;;;24.73;10.20;;;;;;;;;;5074355;28;20025;-76
2021/12/26 09:23:11;;;;;;;26.63;11.83;;;;;;;;;;5070450;28;20468;-76
2021/12/26 09:25:37;;;;;;;31.67;11.63;;;;;;;;;;5071313;28;20024;-77
2021/12/26 09:28:03;;;;;;;25.47;11.43;;;;;;;;;;5074625;28;20024;-75
2021/12/26 09:30:28;;;;;;;30.23;11.07;;;;;;;;;;5083017;28;20051;-76
2021/12/26 09:32:54;;;;;;;25.10;9.57;;;;;;;;;;5091176;28;20032;-74
2021/12/26 09:35:19;;;;;;;32.13;11.57;;;;;;;;;;5090391;28;20044;-75
2021/12/26 09:37:45;;;;;;;34.97;12.03;;;;;;;;;;5090765;28;20024;-74
2021/12/26 09:40:13;;;;;;;31.20;11.33;;;;;;;;;;5083782;28;20041;-74
2021/12/26 09:42:39;;;;;;;22.20;10.73;;;;;;;;;;5062141;28;20024;-76
2021/12/26 09:45:09;;;;;;;22.40;10.83;;;;;;;;;;5075983;28;20419;-76
2021/12/26 09:47:35;;;;;;;33.87;11.47;;;;;;;;;;5072406;28;20079;-76
2021/12/26 09:50:02;;;;;;;24.70;11.80;;;;;;;;;;5073660;28;20035;-77
2021/12/26 09:52:27;;;;;;;28.43;11.37;;;;;;;;;;5072757;28;20232;-77
2021/12/26 09:54:53;;;;;;;28.13;10.37;;;;;;;;;;5071537;28;20047;-76
2021/12/26 09:57:19;;;;;;;31.83;12.30;;;;;;;;;;5072618;28;20332;-77
2021/12/26 09:59:47;;;;;;;26.03;11.83;;;;;;;;;;5072229;28;20029;-77
2021/12/26 10:02:15;;;;;;;25.03;10.43;;;;;;;;;;5071161;28;20032;-75
2021/12/26 10:04:43;;;;;;;36.07;12.77;;;;;;;;;;5070665;28;20025;-77
2021/12/26 10:07:12;;;;;;;33.03;12.03;;;;;;;;;;5070913;28;20034;-77
2021/12/26 10:09:46;;;;;;;23.30;11.00;;;;;;;;;;5070669;28;20024;-76
2021/12/26 10:12:13;;;;;;;30.00;11.90;;;;;;;;;;5070846;28;20040;-77
2021/12/26 10:14:40;;;;;;;31.03;13.87;;;;;;;;;;5070632;28;20025;-76
2021/12/26 10:17:09;;;;;;;33.03;13.67;;;;;;;;;;5070909;28;20138;-78
2021/12/26 10:19:47;;;;;;;30.00;11.23;;;;;;;;;;5070795;28;20032;-77
2021/12/26 10:22:16;;;;;;;27.70;12.30;;;;;;;;;;5070925;28;20020;-77
2021/12/26 10:24:49;;;;;;;21.67;10.03;;;;;;;;;;5087421;28;20020;-76
2021/12/26 10:27:19;;;;;;;32.17;13.80;;;;;;;;;;5072817;28;20027;-77
2021/12/26 10:29:47;;;;;;;32.40;12.80;;;;;;;;;;5073866;28;20163;-75
2021/12/26 10:32:17;;;;;;;30.30;12.50;;;;;;;;;;5072788;28;20447;-77
2021/12/26 10:34:50;;;;;;;25.33;11.57;;;;;;;;;;5071369;28;20106;-76
2021/12/26 10:37:36;;;;;;;33.70;11.70;;;;;;;;;;5073953;28;20064;-77
2021/12/26 10:40:12;;;;;;;34.00;10.93;;;;;;;;;;5071233;28;20142;-75
2021/12/26 10:42:48;;;;;;;30.80;12.33;;;;;;;;;;5071527;28;20032;-78
2021/12/26 10:45:17;;;;;;;36.50;13.00;;;;;;;;;;5072011;28;20123;-76
2021/12/26 10:47:51;;;;;;;27.37;11.93;;;;;;;;;;5090197;28;20028;-76
2021/12/26 10:50:20;;;;;;;33.40;13.03;;;;;;;;;;5093531;28;20025;-75
2021/12/26 10:52:59;;;;;;;31.27;11.70;;;;;;;;;;5077927;28;20119;-77
2021/12/26 10:55:34;;;;;;;29.73;12.10;;;;;;;;;;5075553;28;20025;-76
2021/12/26 10:58:05;;;;;;;32.00;12.03;;;;;;;;;;5080026;28;20025;-78
2021/12/26 11:00:34;;;;;;;32.07;13.10;;;;;;;;;;5077705;28;20028;-76
2021/12/26 11:03:03;;;;;;;26.50;10.80;;;;;;;;;;5078844;28;20021;-75
2021/12/26 11:05:39;;;;;;;36.20;13.30;;;;;;;;;;5091336;28;20278;-78
2021/12/26 11:08:07;;;;;;;30.33;12.43;;;;;;;;;;5071938;28;20467;-77
2021/12/26 11:10:48;;;;;;;23.37;10.97;;;;;;;;;;5069688;28;20024;-77
2021/12/26 11:13:21;;;;;;;25.20;10.13;;;;;;;;;;5069628;28;20392;-78
2021/12/26 11:15:49;;;;;;;35.63;13.10;;;;;;;;;;5071243;28;20059;-76
2021/12/26 11:18:18;;;;;;;33.90;12.77;;;;;;;;;;5071747;28;20032;-76
2021/12/26 11:20:59;;;;;;;33.70;12.80;;;;;;;;;;5069765;28;20525;-78
2021/12/26 11:23:30;;;;;;;32.05;14.27;;;;;;;;;;5070336;28;20530;-76
2021/12/26 11:26:09;;;;;;;31.13;12.10;;;;;;;;;;5069544;28;20040;-77
2021/12/26 11:28:38;;;;;;;28.90;12.33;;;;;;;;;;5053933;28;20032;-77
2021/12/26 11:31:19;;;;;;;26.27;12.17;;;;;;;;;;5069035;28;20032;-76
2021/12/26 11:33:49;;;;;;;23.07;10.67;;;;;;;;;;5070601;28;20056;-76
2021/12/26 11:36:16;;;;;;;27.77;10.80;;;;;;;;;;5070995;28;20062;-78
2021/12/26 11:38:43;;;;;;;31.27;10.93;;;;;;;;;;5070418;28;20068;-77
2021/12/26 11:41:32;;;;;;;29.63;12.60;;;;;;;;;;5070519;28;20044;-77
2021/12/26 11:44:18;;;;;;;24.07;9.80;;;;;;;;;;5069482;28;20055;-77
2021/12/26 11:47:06;;;;;;;33.33;11.80;;;;;;;;;;5070937;28;20468;-78
2021/12/26 11:50:01;;;;;;;25.10;11.50;;;;;;;;;;5072277;28;20472;-78
2021/12/26 11:52:48;;;;;;;26.63;10.47;;;;;;;;;;5072612;28;20028;-79
2021/12/26 11:55:51;;;;;;;24.70;11.00;;;;;;;;;;5071422;28;20104;-77
2021/12/26 11:58:23;;;;;;;;;;;;;;;;;;5069695;28;20052;-77
2021/12/26 12:00:52;;;;;;;24.10;10.00;;;;;;;;;;5069660;28;19908;-78
2021/12/26 12:03:20;;;;;;;24.87;11.13;;;;;;;;;;5070262;28;20138;-76
2021/12/26 12:05:46;;;;;;;19.57;8.33;;;;;;;;;;5069292;28;20550;-76
2021/12/26 12:08:17;;;;;;;25.73;10.33;;;;;;;;;;5069144;28;20120;-76
2021/12/26 12:10:56;;;;;;;19.50;8.30;;;;;;;;;;5068489;28;20396;-78
2021/12/26 12:13:21;;;;;;;25.57;9.73;;;;;;;;;;5068813;28;20024;-75
2021/12/26 12:16:01;;;;;;;20.53;8.40;;;;;;;;;;5070176;28;20027;-77
2021/12/26 12:18:33;;;;;;;18.57;8.33;;;;;;;;;;5068289;28;20025;-77
2021/12/26 12:21:17;;;;;;;21.08;9.25;;;;;;;;;;5070052;28;20487;-77
2021/12/26 12:24:09;;;;;;;26.20;9.53;;;;;;;;;;5068401;28;20040;-75
2021/12/26 12:26:42;;;;;;;24.25;8.80;;;;;;;;;;5069802;28;20476;-76
2021/12/26 12:29:09;;;;;;;19.23;9.77;;;;;;;;;;5068597;28;20032;-76
2021/12/26 12:31:35;;;;;;;17.93;7.83;;;;;;;;;;5068594;28;20472;-78
2021/12/26 12:34:15;;;;;;;21.63;9.20;;;;;;;;;;5069681;28;20105;-76
2021/12/26 12:36:44;;;;;;;21.13;8.60;;;;;;;;;;5069651;28;20028;-77
2021/12/26 12:39:30;;;;;;;15.60;8.00;;;;;;;;;;5069584;28;20073;-78
2021/12/26 12:41:55;;;;;;;23.77;8.90;;;;;;;;;;5068644;28;20154;-77
2021/12/26 12:44:44;;;;;;;23.67;8.93;;;;;;;;;;5068472;28;20111;-76
2021/12/26 12:47:17;;;;;;;18.40;7.50;;;;;;;;;;5068543;28;20476;-78
2021/12/26 12:49:48;;;;;;;23.23;8.90;;;;;;;;;;5069577;28;20024;-75
2021/12/26 12:52:45;;;;;;;21.03;8.47;;;;;;;;;;5068169;28;20036;-77
2021/12/26 12:55:14;;;;;;;30.10;9.87;;;;;;;;;;5061767;28;20063;-77
2021/12/26 12:57:42;;;;;;;22.00;9.73;;;;;;;;;;5069346;28;20025;-75
2021/12/26 13:00:23;;;;;;;17.90;8.23;;;;;;;;;;5069491;28;20456;-78
2021/12/26 13:02:49;;;;;;;19.00;9.03;;;;;;;;;;5069372;28;20052;-76
2021/12/26 13:05:31;;;;;;;18.27;8.83;;;;;;;;;;5069428;28;20499;-78
2021/12/26 13:08:17;;;;;;;23.43;9.60;;;;;;;;;;5070916;28;20024;-77
2021/12/26 13:10:47;;;;;;;23.60;10.07;;;;;;;;;;5071848;28;20028;-78
2021/12/26 13:13:16;;;;;;;27.43;9.73;;;;;;;;;;5071732;28;20472;-77
2021/12/26 13:15:56;;;;;;;27.83;9.07;;;;;;;;;;5071503;28;20548;-79
2021/12/26 13:18:25;;;;;;;23.50;9.97;;;;;;;;;;5055072;28;20488;-78
2021/12/26 13:20:53;;;;;;;31.47;10.83;;;;;;;;;;5072714;28;20107;-77
2021/12/26 13:23:19;;;;;;;29.13;10.10;;;;;;;;;;5071554;28;20031;-77
2021/12/26 13:25:45;;;;;;;26.67;10.13;;;;;;;;;;5071462;28;20085;-77
2021/12/26 13:28:14;;;;;;;32.20;10.43;;;;;;;;;;5072769;28;20056;-77
2021/12/26 13:30:42;;;;;;;26.07;10.50;;;;;;;;;;5071331;28;20016;-76
2021/12/26 13:33:37;;;;;;;24.20;9.90;;;;;;;;;;5072920;28;20028;-76
2021/12/26 13:36:11;;;;;;;26.07;9.10;;;;;;;;;;5069623;28;20040;-77
2021/12/26 13:38:37;;;;;;;22.53;10.20;;;;;;;;;;5072387;28;20024;-78
2021/12/26 13:41:04;;;;;;;23.27;9.63;;;;;;;;;;5071513;28;20024;-76
2021/12/26 13:43:35;;;;;;;19.17;7.87;;;;;;;;;;5071220;28;20055;-76
2021/12/26 13:46:02;;;;;;;24.52;9.13;;;;;;;;;;5072793;28;20515;-76
2021/12/26 13:48:37;;;;;;;22.17;8.67;;;;;;;;;;5072795;28;20066;-78
2021/12/26 13:51:24;;;;;;;27.77;8.13;;;;;;;;;;5071340;28;20032;-75
2021/12/26 13:54:12;;;;;;;17.70;7.97;;;;;;;;;;5071238;28;20040;-77
2021/12/26 13:56:49;;;;;;;23.40;8.47;;;;;;;;;;5071624;28;20553;-77
2021/12/26 13:59:28;;;;;;;21.73;8.93;;;;;;;;;;5072051;28;20029;-77
2021/12/26 14:01:53;;;;;;;18.07;8.40;;;;;;;;;;5070600;28;20454;-77
2021/12/26 14:04:22;;;;;;;21.67;7.73;;;;;;;;;;5070571;28;20032;-78
2021/12/26 14:06:48;;;;;;;20.60;8.23;;;;;;;;;;5070694;28;20056;-79
2021/12/26 14:09:14;;;;;;;19.87;8.67;;;;;;;;;;5070553;28;20077;-77
2021/12/26 14:11:39;;;;;;;21.67;7.77;;;;;;;;;;5070640;28;20391;-78
2021/12/26 14:14:07;;;;;;;18.50;8.17;;;;;;;;;;5071367;28;20020;-78
2021/12/26 14:16:35;;;;;;;25.00;8.00;;;;;;;;;;5074442;28;20028;-76
2021/12/26 14:19:05;;;;;;;19.40;7.60;;;;;;;;;;5073860;28;20170;-77
2021/12/26 14:21:30;;;;;;;29.00;8.87;;;;;;;;;;5072899;28;20227;-77
2021/12/26 14:23:56;;;;;;;21.87;9.00;;;;;;;;;;5075593;28;20037;-76
2021/12/26 14:26:28;;;;;;;19.40;7.57;;;;;;;;;;5079130;28;20036;-75
2021/12/26 14:29:04;;;;;;;15.00;6.53;;;;;;;;;;5075879;28;20131;-77
2021/12/26 14:31:36;;;;;;;18.77;6.57;;;;;;;;;;5071150;28;20060;-76
2021/12/26 14:34:05;;;;;;;18.38;6.72;;;;;;;;;;5072676;28;20075;-78
2021/12/26 14:36:40;;;;;;;18.00;6.57;;;;;;;;;;5082961;28;20072;-78
2021/12/26 14:39:07;;;;;;;18.47;7.47;;;;;;;;;;5089336;28;20082;-75